Time;durP1;ratioP1;P1;durP2;ratioP2;P2;SDS_P1;SDS_P2;PMS_P1;PMS_P2;Temp;Humidity;BMP_temperature;BMP_pressure;BME280_temperature;BME280_humidity;BME280_pressure;Samples;Min_cycle;Max_cycle;Signal;HPM_P1;HPM_P2
2022/07/25 00:00:51;;;;;;;8.23;6.28;;;13.70;99.90;;;;;;5070264;28;20228;-76
2022/07/25 00:03:25;;;;;;;9.90;6.13;;;13.70;99.90;;;;;;5069539;28;20188;-80
2022/07/25 00:05:55;;;;;;;10.43;7.00;;;13.80;99.90;;;;;;5069402;28;20199;-78
2022/07/25 00:08:26;;;;;;;9.43;7.40;;;14.00;99.90;;;;;;5069281;28;20223;-79
2022/07/25 00:10:57;;;;;;;11.05;7.47;;;14.10;99.90;;;;;;5059859;28;20200;-78
2022/07/25 00:13:30;;;;;;;12.93;8.70;;;14.10;99.90;;;;;;5068938;28;20216;-78
2022/07/25 00:16:01;;;;;;;11.05;8.23;;;14.20;99.90;;;;;;5068017;28;20200;-77
2022/07/25 00:18:32;;;;;;;9.77;7.90;;;14.10;99.90;;;;;;5068298;28;20196;-77
2022/07/25 00:21:03;;;;;;;8.98;7.88;;;14.20;99.90;;;;;;5068538;28;20222;-77
2022/07/25 00:23:34;;;;;;;11.18;7.82;;;14.20;99.90;;;;;;5069144;28;20196;-77
2022/07/25 00:26:04;;;;;;;12.18;7.57;;;14.30;99.90;;;;;;5069583;28;20674;-77
2022/07/25 00:28:37;;;;;;;9.73;7.10;;;14.50;99.90;;;;;;5067265;28;20200;-78
2022/07/25 00:31:08;;;;;;;12.20;7.93;;;14.50;99.90;;;;;;5062301;28;20199;-77
2022/07/25 00:33:39;;;;;;;10.48;7.47;;;14.70;99.90;;;;;;5068924;28;20223;-78
2022/07/25 00:36:10;;;;;;;8.13;7.10;;;14.70;99.90;;;;;;5068934;28;20204;-77
2022/07/25 00:38:42;;;;;;;11.45;7.25;;;14.80;99.90;;;;;;5067910;28;20667;-77
2022/07/25 00:41:14;;;;;;;9.43;7.47;;;14.90;99.90;;;;;;5066666;28;20231;-78
2022/07/25 00:43:48;;;;;;;9.00;7.40;;;15.00;99.90;;;;;;5066423;28;20196;-78
2022/07/25 00:46:21;;;;;;;11.75;7.00;;;15.10;99.90;;;;;;5063508;28;20731;-78
2022/07/25 00:48:52;;;;;;;14.27;7.47;;;15.10;99.90;;;;;;5068841;28;20697;-78
2022/07/25 00:51:23;;;;;;;9.85;6.82;;;15.20;99.90;;;;;;5065372;28;20196;-78
2022/07/25 00:53:53;;;;;;;12.60;6.90;;;15.20;99.90;;;;;;5062117;28;20207;-78
2022/07/25 00:56:25;;;;;;;9.57;6.63;;;15.30;99.90;;;;;;5069066;28;20244;-78
2022/07/25 00:58:57;;;;;;;7.15;5.90;;;15.50;99.90;;;;;;5068526;28;20196;-78
2022/07/25 01:01:28;;;;;;;10.98;6.45;;;15.50;99.90;;;;;;5067942;28;20219;-78
2022/07/25 01:03:59;;;;;;;8.48;5.90;;;15.50;99.90;;;;;;5053998;28;20192;-79
2022/07/25 01:06:30;;;;;;;11.75;6.40;;;15.50;99.90;;;;;;5063993;28;20196;-79
2022/07/25 01:09:02;;;;;;;8.68;6.28;;;15.70;99.90;;;;;;5062082;28;20730;-78
2022/07/25 01:11:33;;;;;;;7.97;6.22;;;15.80;99.90;;;;;;5071842;28;20192;-79
2022/07/25 01:14:06;;;;;;;8.57;6.32;;;15.70;99.90;;;;;;5072017;28;20203;-79
2022/07/25 01:16:39;;;;;;;9.90;7.00;;;15.70;99.90;;;;;;5067346;28;20196;-79
2022/07/25 01:19:10;;;;;;;8.60;5.85;;;15.70;99.90;;;;;;5071499;28;20200;-79
2022/07/25 01:21:44;;;;;;;7.65;6.07;;;15.80;99.90;;;;;;5071787;28;20204;-79
2022/07/25 01:24:16;;;;;;;10.63;5.35;;;15.90;99.90;;;;;;5067755;28;20226;-79
2022/07/25 01:26:46;;;;;;;8.02;5.20;;;15.90;99.90;;;;;;5070825;28;20192;-79
2022/07/25 01:29:17;;;;;;;6.90;5.40;;;16.10;99.90;;;;;;5062308;28;20235;-77
2022/07/25 01:31:48;;;;;;;6.28;4.80;;;16.10;99.90;;;;;;5067649;28;20571;-80
2022/07/25 01:34:18;;;;;;;8.10;5.68;;;16.20;99.90;;;;;;5053521;28;20622;-79
2022/07/25 01:36:51;;;;;;;6.32;3.72;;;16.20;99.90;;;;;;5052675;28;20200;-79
2022/07/25 01:39:24;;;;;;;5.65;3.72;;;16.20;99.90;;;;;;5052630;28;20193;-79
2022/07/25 01:41:55;;;;;;;5.43;4.00;;;16.30;99.90;;;;;;5059352;28;20215;-79
2022/07/25 01:44:25;;;;;;;5.90;3.58;;;16.30;99.90;;;;;;5071804;28;20196;-79
2022/07/25 01:46:56;;;;;;;6.45;2.70;;;16.50;99.90;;;;;;5073028;28;20228;-80
2022/07/25 01:49:27;;;;;;;5.15;2.20;;;16.50;99.90;;;;;;5072962;28;20212;-80
2022/07/25 01:52:00;;;;;;;5.10;2.08;;;16.60;99.90;;;;;;5072730;28;20226;-79
2022/07/25 01:54:31;;;;;;;4.05;2.33;;;16.70;99.90;;;;;;5072843;28;20200;-79
2022/07/25 01:57:02;;;;;;;3.50;1.80;;;16.70;99.90;;;;;;5071431;28;20231;-79
2022/07/25 01:59:32;;;;;;;2.85;1.70;;;16.90;99.90;;;;;;5070077;28;20707;-80
2022/07/25 02:02:03;;;;;;;3.22;2.03;;;16.80;99.90;;;;;;5072386;28;20647;-81
2022/07/25 02:04:33;;;;;;;4.03;2.33;;;16.90;99.90;;;;;;5072105;28;20191;-80
2022/07/25 02:07:07;;;;;;;3.65;1.98;;;16.90;99.90;;;;;;5071260;28;20200;-81
2022/07/25 02:09:38;;;;;;;3.45;2.60;;;17.00;99.90;;;;;;5071757;28;20228;-79
2022/07/25 02:12:10;;;;;;;3.72;2.28;;;17.00;99.90;;;;;;5065252;28;20678;-79
2022/07/25 02:14:40;;;;;;;5.97;2.10;;;17.10;99.90;;;;;;5071978;28;20203;-80
2022/07/25 02:17:11;;;;;;;5.15;2.80;;;17.10;99.90;;;;;;5069482;28;20203;-80
2022/07/25 02:19:42;;;;;;;3.67;2.25;;;17.30;99.90;;;;;;5071127;28;20666;-80
2022/07/25 02:22:14;;;;;;;4.15;2.35;;;17.30;99.90;;;;;;5060420;28;20197;-80
2022/07/25 02:24:45;;;;;;;4.22;2.25;;;17.40;99.90;;;;;;5052277;28;20193;-80
2022/07/25 02:27:16;;;;;;;3.45;2.60;;;17.50;99.90;;;;;;5056393;28;20196;-80
2022/07/25 02:29:47;;;;;;;5.68;2.28;;;17.50;99.90;;;;;;5052457;28;20221;-80
2022/07/25 02:32:17;;;;;;;2.88;2.10;;;17.60;99.90;;;;;;5053198;28;20672;-81
2022/07/25 02:34:48;;;;;;;3.17;1.95;;;17.60;99.90;;;;;;5060989;28;20197;-78
2022/07/25 02:37:21;;;;;;;3.08;1.90;;;17.70;99.90;;;;;;5069809;28;20192;-79
2022/07/25 02:39:51;;;;;;;2.15;1.70;;;17.80;99.90;;;;;;5062752;28;20242;-78
2022/07/25 02:42:22;;;;;;;2.28;1.60;;;17.80;99.90;;;;;;5071364;28;20200;-78
2022/07/25 02:44:53;;;;;;;1.75;1.60;;;17.90;99.90;;;;;;5071049;28;20325;-79
2022/07/25 02:47:23;;;;;;;2.60;1.70;;;18.00;99.90;;;;;;5073445;28;20199;-79
2022/07/25 02:49:54;;;;;;;2.15;1.65;;;18.00;99.90;;;;;;5070977;28;20196;-79
2022/07/25 02:52:27;;;;;;;2.85;1.70;;;18.10;99.90;;;;;;5061094;28;20194;-79
2022/07/25 02:54:57;;;;;;;2.35;1.48;;;18.10;99.90;;;;;;5062416;28;20202;-79
2022/07/25 02:57:28;;;;;;;2.72;1.63;;;18.20;99.90;;;;;;5070995;28;20203;-79
2022/07/25 02:59:59;;;;;;;3.00;1.73;;;18.30;99.90;;;;;;5070437;28;20196;-79
2022/07/25 03:02:29;;;;;;;2.28;1.58;;;18.30;99.90;;;;;;5070617;28;20211;-79
2022/07/25 03:05:00;;;;;;;2.30;1.50;;;18.40;99.90;;;;;;5067248;28;20187;-79
2022/07/25 03:07:33;;;;;;;5.97;1.50;;;18.50;99.90;;;;;;5070174;28;20451;-78
2022/07/25 03:10:04;;;;;;;2.63;1.60;;;18.60;99.90;;;;;;5070356;28;20219;-78
2022/07/25 03:12:34;;;;;;;1.95;1.25;;;18.60;99.90;;;;;;5070714;28;20565;-80
2022/07/25 03:15:06;;;;;;;1.88;1.38;;;18.60;99.90;;;;;;5070549;28;20674;-79
2022/07/25 03:17:37;;;;;;;3.47;1.48;;;18.60;99.90;;;;;;5070800;28;20203;-79
2022/07/25 03:20:10;;;;;;;1.92;1.70;;;18.70;99.90;;;;;;5070535;28;20199;-78
2022/07/25 03:22:43;;;;;;;3.03;1.75;;;18.80;99.90;;;;;;5069784;28;20200;-79
2022/07/25 03:25:14;;;;;;;2.42;1.25;;;18.80;99.90;;;;;;5070004;28;20275;-78
2022/07/25 03:27:45;;;;;;;2.70;1.30;;;18.80;99.90;;;;;;5070402;28;20188;-79
2022/07/25 03:30:16;;;;;;;4.30;1.70;;;18.70;99.90;;;;;;5069976;28;20216;-79
2022/07/25 03:32:46;;;;;;;4.50;1.65;;;18.60;99.90;;;;;;5069722;28;20196;-79
2022/07/25 03:35:17;;;;;;;5.03;1.60;;;18.60;99.90;;;;;;5062682;28;20773;-79
2022/07/25 03:37:50;;;;;;;2.20;1.60;;;18.50;99.90;;;;;;5069860;28;20192;-79
2022/07/25 03:40:21;;;;;;;3.70;1.98;;;18.40;99.90;;;;;;5068949;28;20211;-79
2022/07/25 03:42:51;;;;;;;4.85;2.00;;;18.40;99.90;;;;;;5070012;28;20192;-79
2022/07/25 03:45:22;;;;;;;6.55;2.08;;;18.30;99.90;;;;;;5069826;28;20200;-79
2022/07/25 03:47:53;;;;;;;6.50;2.50;;;18.20;99.90;;;;;;5070266;28;20200;-79
2022/07/25 03:50:23;;;;;;;8.00;2.20;;;18.20;99.90;;;;;;5068915;28;20257;-77
2022/07/25 03:52:56;;;;;;;5.65;2.10;;;18.20;99.90;;;;;;5070228;28;20204;-79
2022/07/25 03:55:27;;;;;;;6.82;1.83;;;18.20;99.90;;;;;;5068895;28;20765;-79
2022/07/25 03:57:58;;;;;;;6.15;1.90;;;18.10;99.90;;;;;;5060894;28;20566;-79
2022/07/25 04:00:29;;;;;;;4.18;1.50;;;18.10;99.90;;;;;;5069500;28;20234;-79
2022/07/25 04:02:59;;;;;;;6.13;1.60;;;18.20;99.90;;;;;;5070090;28;20260;-78
2022/07/25 04:05:34;;;;;;;7.68;1.70;;;18.30;99.90;;;;;;5068976;28;20195;-79
2022/07/25 04:08:07;;;;;;;4.97;1.55;;;18.30;99.90;;;;;;5066587;28;20226;-79
2022/07/25 04:10:37;;;;;;;6.10;1.48;;;18.40;99.90;;;;;;5070111;28;20595;-79
2022/07/25 04:13:08;;;;;;;3.90;1.23;;;18.40;99.90;;;;;;5068366;28;20204;-79
2022/07/25 04:15:39;;;;;;;4.93;0.98;;;18.50;99.90;;;;;;5070097;28;20196;-79
2022/07/25 04:18:10;;;;;;;3.17;0.82;;;18.50;99.90;;;;;;5069986;28;20196;-79
2022/07/25 04:20:41;;;;;;;4.53;1.00;;;18.50;99.90;;;;;;5069994;28;20215;-79
2022/07/25 04:23:14;;;;;;;4.22;1.15;;;18.50;99.90;;;;;;5069678;28;20204;-78
2022/07/25 04:25:44;;;;;;;6.97;1.35;;;18.50;99.90;;;;;;5069670;28;20204;-79
2022/07/25 04:28:15;;;;;;;4.78;1.05;;;18.50;99.90;;;;;;5067970;28;20556;-78
2022/07/25 04:30:46;;;;;;;3.50;1.00;;;18.60;99.90;;;;;;5065988;28;20273;-80
2022/07/25 04:33:16;;;;;;;4.07;0.90;;;18.50;99.90;;;;;;5069280;28;20202;-80
2022/07/25 04:35:47;;;;;;;3.58;1.00;;;18.50;99.90;;;;;;5069155;28;20192;-80
2022/07/25 04:38:21;;;;;;;4.63;0.95;;;18.60;99.90;;;;;;5061661;28;20203;-80
2022/07/25 04:40:52;;;;;;;3.03;0.93;;;18.60;99.90;;;;;;5069476;28;20212;-81
2022/07/25 04:43:23;;;;;;;3.95;0.80;;;18.60;99.90;;;;;;5071524;28;20196;-80
2022/07/25 04:45:54;;;;;;;1.95;1.00;;;18.70;99.90;;;;;;5069976;28;20199;-79
2022/07/25 04:48:26;;;;;;;4.78;1.05;;;18.70;99.90;;;;;;5073227;28;20627;-80
2022/07/25 04:50:57;;;;;;;4.93;1.13;;;18.80;99.90;;;;;;5073400;28;20204;-82
2022/07/25 04:53:31;;;;;;;3.85;0.90;;;18.80;99.90;;;;;;5073355;28;20200;-80
2022/07/25 04:56:05;;;;;;;6.35;1.00;;;18.80;99.90;;;;;;5073387;28;20191;-80
2022/07/25 04:58:36;;;;;;;2.28;0.80;;;18.80;99.90;;;;;;5073275;28;20195;-79
2022/07/25 05:01:06;;;;;;;3.28;1.20;;;18.80;99.90;;;;;;5072246;28;20222;-79
2022/07/25 05:03:37;;;;;;;2.28;0.80;;;18.80;99.90;;;;;;5072998;28;20196;-79
2022/07/25 05:06:08;;;;;;;3.85;0.90;;;18.70;99.90;;;;;;5072994;28;20204;-80
2022/07/25 05:08:41;;;;;;;4.13;0.77;;;18.70;99.90;;;;;;5073259;28;20745;-78
2022/07/25 05:11:11;;;;;;;2.67;1.00;;;18.60;99.90;;;;;;5074175;28;20215;-79
2022/07/25 05:13:42;;;;;;;3.33;1.00;;;18.60;99.90;;;;;;5073272;28;20239;-79
2022/07/25 05:16:13;;;;;;;4.32;1.17;;;18.50;99.90;;;;;;5073589;28;20207;-78
2022/07/25 05:18:43;;;;;;;3.85;0.95;;;18.50;99.90;;;;;;5072020;28;20200;-79
2022/07/25 05:21:15;;;;;;;4.03;1.15;;;18.50;99.90;;;;;;5072552;28;20220;-80
2022/07/25 05:23:48;;;;;;;2.28;0.90;;;18.40;99.90;;;;;;5066546;28;20214;-79
2022/07/25 05:26:18;;;;;;;2.35;1.00;;;18.30;99.90;;;;;;5072525;28;20192;-79
2022/07/25 05:28:49;;;;;;;3.03;1.40;;;18.30;99.90;;;;;;5072463;28;20659;-79
2022/07/25 05:31:20;;;;;;;3.40;1.23;;;18.30;99.90;;;;;;5072658;28;20196;-79
2022/07/25 05:33:51;;;;;;;4.20;1.02;;;18.30;99.90;;;;;;5068374;28;20200;-79
2022/07/25 05:36:23;;;;;;;4.68;1.50;;;18.30;99.90;;;;;;5072283;28;20211;-85
2022/07/25 05:38:56;;;;;;;7.28;1.30;;;18.10;99.90;;;;;;5072619;28;20264;-80
2022/07/25 05:41:27;;;;;;;6.78;1.30;;;18.10;99.90;;;;;;5072449;28;20216;-80
2022/07/25 05:43:57;;;;;;;2.78;1.35;;;18.10;99.90;;;;;;5072204;28;20196;-80
2022/07/25 05:46:29;;;;;;;3.80;1.08;;;18.00;99.90;;;;;;5072467;28;20200;-80
2022/07/25 05:48:59;;;;;;;5.50;1.30;;;18.00;99.90;;;;;;5064736;28;20509;-80
2022/07/25 05:51:30;;;;;;;6.53;1.30;;;18.00;99.90;;;;;;5070549;28;20224;-81
2022/07/25 05:54:06;;;;;;;5.22;1.17;;;17.90;99.90;;;;;;5071703;28;20196;-80
2022/07/25 05:56:37;;;;;;;4.53;1.38;;;17.90;99.90;;;;;;5069456;28;20199;-80
2022/07/25 05:59:09;;;;;;;5.22;1.33;;;17.90;99.90;;;;;;5064898;28;20202;-80
2022/07/25 06:01:40;;;;;;;4.80;1.40;;;17.80;99.90;;;;;;5072518;28;20231;-80
2022/07/25 06:04:11;;;;;;;3.38;1.10;;;17.80;99.90;;;;;;5072411;28;20200;-79
2022/07/25 06:06:42;;;;;;;2.22;1.00;;;17.90;99.90;;;;;;5071118;28;20231;-79
2022/07/25 06:09:14;;;;;;;3.15;1.08;;;17.90;99.90;;;;;;5072474;28;20222;-79
2022/07/25 06:11:46;;;;;;;1.83;0.95;;;17.90;99.90;;;;;;5067090;28;20196;-78
2022/07/25 06:14:17;;;;;;;3.65;0.82;;;18.00;99.90;;;;;;5068136;28;20214;-80
2022/07/25 06:16:49;;;;;;;2.45;0.80;;;18.00;99.90;;;;;;5071816;28;20325;-79
2022/07/25 06:19:19;;;;;;;4.82;0.82;;;18.00;99.90;;;;;;5071365;28;20254;-79
2022/07/25 06:21:50;;;;;;;1.65;0.80;;;18.10;99.90;;;;;;5070634;28;20235;-80
2022/07/25 06:24:23;;;;;;;1.95;0.60;;;18.10;99.90;;;;;;5071127;28;20195;-79
2022/07/25 06:26:53;;;;;;;3.05;0.90;;;18.10;99.90;;;;;;5071737;28;20196;-79
2022/07/25 06:29:24;;;;;;;3.47;0.60;;;18.10;99.90;;;;;;5071573;28;20219;-80
2022/07/25 06:31:54;;;;;;;1.25;0.60;;;18.10;99.90;;;;;;5071370;28;20215;-80
2022/07/25 06:34:27;;;;;;;3.45;0.80;;;18.10;99.90;;;;;;5071555;28;20253;-80
2022/07/25 06:36:58;;;;;;;2.78;0.90;;;18.00;99.90;;;;;;5070710;28;20192;-80
2022/07/25 06:39:32;;;;;;;1.40;0.60;;;17.90;99.90;;;;;;5071070;28;20200;-80
2022/07/25 06:42:03;;;;;;;1.15;0.80;;;17.80;99.90;;;;;;5071103;28;20223;-80
2022/07/25 06:44:35;;;;;;;1.80;0.70;;;17.70;99.90;;;;;;5063112;28;20616;-80
2022/07/25 06:47:11;;;;;;;3.53;0.85;;;17.60;99.90;;;;;;5070142;28;20685;-80
2022/07/25 06:49:41;;;;;;;1.73;0.70;;;17.60;99.90;;;;;;5070903;28;20538;-83
2022/07/25 06:52:12;;;;;;;1.80;0.90;;;17.60;99.90;;;;;;5069064;28;20204;-81
2022/07/25 06:54:45;;;;;;;2.33;0.82;;;17.50;99.90;;;;;;5071283;28;20215;-81
2022/07/25 06:57:15;;;;;;;3.05;0.95;;;17.50;99.90;;;;;;5070894;28;20204;-80
2022/07/25 06:59:46;;;;;;;2.30;0.80;;;17.50;99.90;;;;;;5070485;28;20203;-80
2022/07/25 07:02:17;;;;;;;3.25;0.80;;;17.40;99.90;;;;;;5070971;28;20318;-80
2022/07/25 07:04:48;;;;;;;2.45;0.85;;;17.40;99.90;;;;;;5070663;28;20204;-81
2022/07/25 07:07:19;;;;;;;2.45;0.90;;;17.30;99.90;;;;;;5062211;28;20199;-81
2022/07/25 07:09:52;;;;;;;3.45;0.95;;;17.30;99.90;;;;;;5061215;28;20270;-85
2022/07/25 07:12:22;;;;;;;2.10;0.85;;;17.20;99.90;;;;;;5073193;28;20592;-82
2022/07/25 07:14:53;;;;;;;4.32;0.95;;;17.20;99.90;;;;;;5067654;28;20196;-81
2022/07/25 07:17:24;;;;;;;2.97;1.10;;;17.20;99.90;;;;;;5068100;28;20200;-79
2022/07/25 07:19:54;;;;;;;4.35;1.00;;;17.10;99.90;;;;;;5070941;28;20249;-79
2022/07/25 07:22:25;;;;;;;3.28;0.93;;;17.10;99.90;;;;;;5070429;28;20232;-80
2022/07/25 07:24:57;;;;;;;3.25;0.98;;;17.10;99.90;;;;;;5070703;28;20203;-80
2022/07/25 07:27:28;;;;;;;2.47;1.20;;;17.00;99.90;;;;;;5070659;28;20199;-81
2022/07/25 07:29:59;;;;;;;3.88;1.30;;;17.00;99.90;;;;;;5069789;28;20224;-80
2022/07/25 07:32:30;;;;;;;1.38;0.88;;;17.00;99.90;;;;;;5071238;28;20663;-79
2022/07/25 07:35:00;;;;;;;4.07;1.20;;;17.00;99.90;;;;;;5070820;28;20682;-80
2022/07/25 07:37:31;;;;;;;3.50;1.10;;;16.90;99.90;;;;;;5070680;28;20681;-80
2022/07/25 07:40:04;;;;;;;4.38;1.30;;;16.90;99.90;;;;;;5070974;28;20192;-81
2022/07/25 07:42:41;;;;;;;2.08;1.00;;;16.90;99.90;;;;;;5070906;28;20230;-82
2022/07/25 07:45:17;;;;;;;4.38;1.13;;;16.80;99.90;;;;;;5070925;28;20662;-80
2022/07/25 07:47:49;;;;;;;4.88;1.15;;;16.90;99.90;;;;;;5069432;28;20616;-81
2022/07/25 07:50:21;;;;;;;3.53;1.15;;;16.80;99.90;;;;;;5070061;28;20215;-80
2022/07/25 07:52:52;;;;;;;3.47;1.33;;;16.80;99.90;;;;;;5071050;28;20195;-80
2022/07/25 07:58:14;;;;;;;3.03;1.23;;;16.80;99.90;;;;;;5071480;28;20420;-80
2022/07/25 08:00:47;;;;;;;4.22;1.48;;;16.80;99.90;;;;;;5072247;28;20200;-78
2022/07/25 08:03:22;;;;;;;3.92;1.50;;;16.70;99.90;;;;;;5072023;28;20224;-79
2022/07/25 08:05:53;;;;;;;4.60;2.05;;;16.70;99.90;;;;;;5071670;28;20202;-81
2022/07/25 08:08:24;;;;;;;6.32;2.10;;;16.70;99.90;;;;;;5071064;28;20224;-80
2022/07/25 08:10:57;;;;;;;4.97;1.58;;;16.70;99.90;;;;;;5068176;28;20211;-81
2022/07/25 08:13:28;;;;;;;5.25;1.55;;;16.70;99.90;;;;;;5064469;28;20200;-81
2022/07/25 08:16:02;;;;;;;5.03;1.40;;;16.70;99.90;;;;;;5068816;28;20250;-80
2022/07/25 08:18:33;;;;;;;3.80;1.20;;;16.60;99.90;;;;;;5068433;28;20192;-81
2022/07/25 08:21:05;;;;;;;6.80;1.77;;;16.60;99.90;;;;;;5069553;28;20235;-81
2022/07/25 08:23:37;;;;;;;3.83;1.50;;;16.60;99.90;;;;;;5060775;28;20306;-80
2022/07/25 08:26:10;;;;;;;5.15;1.63;;;16.60;99.90;;;;;;5069538;28;20200;-80
2022/07/25 08:28:40;;;;;;;5.35;1.60;;;16.60;99.90;;;;;;5070138;28;20184;-80
2022/07/25 08:31:11;;;;;;;2.70;1.08;;;16.60;99.90;;;;;;5069945;28;20216;-79
2022/07/25 08:33:42;;;;;;;3.25;1.30;;;16.60;99.90;;;;;;5068876;28;20196;-85
2022/07/25 08:36:14;;;;;;;5.60;1.88;;;16.60;99.90;;;;;;5069162;28;20200;-80
2022/07/25 08:38:44;;;;;;;5.10;2.20;;;16.60;99.90;;;;;;5070237;28;20705;-80
2022/07/25 08:41:17;;;;;;;5.78;2.67;;;16.50;99.90;;;;;;5070443;28;20195;-80
2022/07/25 08:43:50;;;;;;;7.78;2.90;;;16.50;99.90;;;;;;5070252;28;20698;-89
2022/07/25 08:46:21;;;;;;;9.82;3.30;;;16.50;99.90;;;;;;5067427;28;20217;-81
2022/07/25 08:48:53;;;;;;;9.25;3.00;;;16.50;99.90;;;;;;5072125;28;20188;-91
2022/07/25 08:51:24;;;;;;;6.40;2.55;;;16.50;99.90;;;;;;5067069;28;20211;-91
2022/07/25 08:53:56;;;;;;;6.57;2.40;;;16.50;99.90;;;;;;5072765;28;20651;-83
2022/07/25 08:56:29;;;;;;;11.68;2.35;;;16.50;99.90;;;;;;5072011;28;20276;-83
2022/07/25 08:59:01;;;;;;;6.38;2.50;;;16.50;99.90;;;;;;5072973;28;20558;-92
2022/07/25 09:01:32;;;;;;;9.05;2.60;;;16.50;99.90;;;;;;5073075;28;20212;-93
2022/07/25 09:04:03;;;;;;;11.90;2.85;;;16.50;99.90;;;;;;5072844;28;20250;-95
2022/07/25 09:06:34;;;;;;;9.60;3.10;;;16.40;99.90;;;;;;5057643;28;20200;-83
2022/07/25 09:09:07;;;;;;;7.88;2.72;;;16.50;99.90;;;;;;5070007;28;20749;-83
2022/07/25 09:11:40;;;;;;;8.55;2.88;;;16.40;99.90;;;;;;5077054;28;20208;-83
2022/07/25 09:14:12;;;;;;;9.18;2.92;;;16.40;99.90;;;;;;5072120;28;20196;-83
2022/07/25 09:16:44;;;;;;;7.72;2.58;;;16.30;99.90;;;;;;5054392;28;20204;-84
2022/07/25 09:19:17;;;;;;;10.00;2.92;;;16.30;99.90;;;;;;5069033;28;20623;-83
2022/07/25 09:22:00;;;;;;;10.43;5.43;;;16.30;99.90;;;;;;5064335;28;20223;-80
2022/07/25 09:24:31;;;;;;;10.80;4.85;;;16.20;99.90;;;;;;5061864;28;20230;-81
2022/07/25 09:27:10;;;;;;;9.38;4.15;;;16.30;99.90;;;;;;5061333;28;20204;-81
2022/07/25 09:29:43;;;;;;;10.82;4.03;;;16.30;99.90;;;;;;5056491;28;20290;-80
2022/07/25 09:32:21;;;;;;;8.52;3.35;;;16.30;99.90;;;;;;5062142;28;20203;-81
2022/07/25 09:34:53;;;;;;;9.07;3.80;;;16.30;99.90;;;;;;5062065;28;20564;-82
2022/07/25 09:37:29;;;;;;;7.50;3.58;;;16.30;99.90;;;;;;5073241;28;20192;-81
2022/07/25 09:39:59;;;;;;;10.32;3.47;;;16.20;99.90;;;;;;5079642;28;20219;-81
2022/07/25 09:42:35;;;;;;;7.75;3.20;;;16.20;99.90;;;;;;5083112;28;20227;-81
2022/07/25 09:45:10;;;;;;;7.78;3.85;;;16.20;99.90;;;;;;5076223;28;20235;-81
2022/07/25 09:47:51;;;;;;;7.93;3.03;;;16.10;99.90;;;;;;5073533;28;20195;-81
2022/07/25 09:50:24;;;;;;;9.95;3.10;;;16.10;99.90;;;;;;5072930;28;20291;-81
2022/07/25 09:52:55;;;;;;;9.07;3.20;;;16.10;99.90;;;;;;5073818;28;20257;-81
2022/07/25 09:55:26;;;;;;;6.38;2.78;;;16.00;99.90;;;;;;5074434;28;20200;-81
2022/07/25 09:57:59;;;;;;;7.95;3.10;;;16.10;99.90;;;;;;5068116;28;20196;-81
2022/07/25 10:00:32;;;;;;;6.78;2.88;;;16.10;99.90;;;;;;5074462;28;20659;-81
2022/07/25 10:03:20;;;;;;;6.82;2.40;;;16.10;99.90;;;;;;5065505;28;20223;-81
2022/07/25 10:06:04;;;;;;;6.57;2.58;;;16.10;99.90;;;;;;5074778;28;20195;-88
2022/07/25 10:08:40;;;;;;;8.32;2.70;;;16.00;99.90;;;;;;5074565;28;20219;-88
2022/07/25 10:11:22;;;;;;;2.80;2.00;;;16.00;99.90;;;;;;5075892;28;20208;-89
2022/07/25 10:13:56;;;;;;;6.82;2.60;;;16.10;99.90;;;;;;5075107;28;20204;-88
2022/07/25 10:16:28;;;;;;;5.05;2.28;;;16.10;99.90;;;;;;5075000;28;20196;-89
2022/07/25 10:19:00;;;;;;;5.60;2.22;;;16.10;99.90;;;;;;5077506;28;20204;-89
2022/07/25 10:21:32;;;;;;;4.75;2.35;;;16.00;99.90;;;;;;5075239;28;20210;-89
2022/07/25 10:24:09;;;;;;;3.88;2.00;;;16.00;99.90;;;;;;5072050;28;20232;-88
2022/07/25 10:26:40;;;;;;;7.90;2.40;;;16.00;99.90;;;;;;5073315;28;20551;-84
2022/07/25 10:29:14;;;;;;;4.68;2.47;;;16.00;99.90;;;;;;5073145;28;20259;-84
2022/07/25 10:31:45;;;;;;;6.15;2.40;;;15.90;99.90;;;;;;5073266;28;20196;-83
2022/07/25 10:34:17;;;;;;;4.10;2.22;;;15.90;99.90;;;;;;5073937;28;20291;-84
2022/07/25 10:36:49;;;;;;;5.85;2.67;;;15.90;99.90;;;;;;5073132;28;20195;-83
2022/07/25 10:39:22;;;;;;;3.65;2.15;;;15.90;99.90;;;;;;5072013;28;20670;-82
2022/07/25 10:41:55;;;;;;;7.07;2.65;;;15.90;99.90;;;;;;5072362;28;20200;-83
2022/07/25 10:44:40;;;;;;;4.18;2.35;;;15.90;99.90;;;;;;5072586;28;20234;-85
2022/07/25 10:47:12;;;;;;;6.82;2.30;;;15.90;99.90;;;;;;5072517;28;20263;-83
2022/07/25 10:49:44;;;;;;;5.43;2.47;;;15.90;99.90;;;;;;5069850;28;20659;-83
2022/07/25 10:52:19;;;;;;;4.93;2.13;;;15.90;99.90;;;;;;5072558;28;20563;-84
2022/07/25 10:54:58;;;;;;;4.65;2.25;;;15.80;99.90;;;;;;5071251;28;20195;-83
2022/07/25 10:57:29;;;;;;;3.88;2.17;;;15.80;99.90;;;;;;5052204;28;20192;-82
2022/07/25 11:00:10;;;;;;;6.10;1.90;;;15.80;99.90;;;;;;5052514;28;20197;-83
2022/07/25 11:02:41;;;;;;;5.43;2.30;;;15.90;99.90;;;;;;5057396;28;20219;-84
2022/07/25 11:05:12;;;;;;;5.05;2.40;;;15.80;99.90;;;;;;5076385;28;20188;-90
2022/07/25 11:07:55;;;;;;;3.95;2.22;;;15.80;99.90;;;;;;5089935;28;20199;-90
2022/07/25 11:10:29;;;;;;;3.55;2.00;;;15.80;99.90;;;;;;5095784;28;20195;-84
2022/07/25 11:13:00;;;;;;;5.53;2.17;;;15.70;99.90;;;;;;5075339;28;20191;-82
2022/07/25 11:15:33;;;;;;;3.83;2.22;;;15.70;99.90;;;;;;5071187;28;20184;-83
2022/07/25 11:18:05;;;;;;;5.57;2.35;;;15.70;99.90;;;;;;5072140;28;20192;-83
2022/07/25 11:20:35;;;;;;;3.35;2.05;;;15.70;99.90;;;;;;5072490;28;20204;-83
2022/07/25 11:23:06;;;;;;;4.63;2.05;;;15.70;99.90;;;;;;5072036;28;20223;-86
2022/07/25 11:25:37;;;;;;;5.97;2.22;;;15.70;99.90;;;;;;5071634;28;20667;-82
2022/07/25 11:28:08;;;;;;;5.60;2.05;;;15.70;99.90;;;;;;5071657;28;20195;-84
2022/07/25 11:30:44;;;;;;;3.83;1.90;;;15.60;99.90;;;;;;5071968;28;20224;-83
2022/07/25 11:33:16;;;;;;;3.15;2.00;;;15.60;99.90;;;;;;5071548;28;20278;-83
2022/07/25 11:35:47;;;;;;;5.38;2.28;;;15.60;99.90;;;;;;5071801;28;20208;-85
2022/07/25 11:38:18;;;;;;;3.10;1.73;;;15.60;99.90;;;;;;5071581;28;20214;-84
2022/07/25 11:40:49;;;;;;;3.63;1.85;;;15.60;99.90;;;;;;5071576;28;20195;-84
2022/07/25 11:43:23;;;;;;;3.13;2.20;;;15.60;99.90;;;;;;5071294;28;20233;-83
2022/07/25 11:46:02;;;;;;;3.65;2.17;;;15.60;99.90;;;;;;5071645;28;20642;-82
2022/07/25 11:48:37;;;;;;;4.70;2.17;;;15.60;99.90;;;;;;5051221;28;20212;-85
2022/07/25 11:51:17;;;;;;;5.43;2.25;;;15.60;99.90;;;;;;5051339;28;20196;-85
2022/07/25 11:53:50;;;;;;;3.63;2.30;;;15.50;99.90;;;;;;5056058;28;20199;-85
2022/07/25 11:56:21;;;;;;;2.67;2.17;;;15.50;99.90;;;;;;5071401;28;20552;-85
2022/07/25 11:59:01;;;;;;;3.80;2.10;;;15.50;99.90;;;;;;5071527;28;20663;-84
2022/07/25 12:01:39;;;;;;;4.80;2.08;;;15.50;99.90;;;;;;5071591;28;20195;-84
2022/07/25 12:04:16;;;;;;;3.83;1.90;;;15.50;99.90;;;;;;5073507;28;20216;-84
2022/07/25 12:06:48;;;;;;;3.75;2.15;;;15.50;99.90;;;;;;5074580;28;20199;-83
2022/07/25 12:09:21;;;;;;;3.55;2.45;;;15.40;99.90;;;;;;5071080;28;20235;-84
2022/07/25 12:12:03;;;;;;;5.57;2.15;;;15.40;99.90;;;;;;5068868;28;20202;-84
2022/07/25 12:14:45;;;;;;;4.32;1.77;;;15.40;99.90;;;;;;5071004;28;20187;-84
2022/07/25 12:17:18;;;;;;;5.47;2.20;;;15.40;99.90;;;;;;5070236;28;20207;-83
2022/07/25 12:19:49;;;;;;;2.47;2.10;;;15.40;99.90;;;;;;5065634;28;20207;-84
2022/07/25 12:22:20;;;;;;;3.75;2.28;;;15.40;99.90;;;;;;5070769;28;20187;-83
2022/07/25 12:24:51;;;;;;;5.97;2.42;;;15.30;99.90;;;;;;5070498;28;20231;-83
2022/07/25 12:27:21;;;;;;;3.88;1.90;;;15.30;99.90;;;;;;5062697;28;20219;-84
2022/07/25 12:29:53;;;;;;;4.80;2.22;;;15.30;99.90;;;;;;5071317;28;20220;-84
2022/07/25 12:32:26;;;;;;;3.83;1.98;;;15.30;99.90;;;;;;5064970;28;20621;-82
2022/07/25 12:34:56;;;;;;;4.80;2.10;;;15.30;99.90;;;;;;5061175;28;20208;-81
2022/07/25 12:37:28;;;;;;;3.13;2.00;;;15.30;99.90;;;;;;5069474;28;20202;-81
2022/07/25 12:39:58;;;;;;;2.60;1.80;;;15.30;99.90;;;;;;5071604;28;20196;-94
2022/07/25 12:42:29;;;;;;;2.58;1.85;;;15.30;99.90;;;;;;5072391;28;20566;-83
2022/07/25 12:45:00;;;;;;;3.40;1.90;;;15.30;99.90;;;;;;5070064;28;20232;-83
2022/07/25 12:47:33;;;;;;;6.53;2.17;;;15.30;99.90;;;;;;5070283;28;20215;-82
2022/07/25 12:50:04;;;;;;;3.25;1.85;;;15.30;99.90;;;;;;5059303;28;20207;-81
2022/07/25 12:52:35;;;;;;;5.07;2.00;;;15.30;99.90;;;;;;5063100;28;20193;-89
2022/07/25 12:55:06;;;;;;;2.63;1.90;;;15.30;99.90;;;;;;5064837;28;20215;-82
2022/07/25 12:57:39;;;;;;;3.90;1.70;;;15.20;99.90;;;;;;5075513;28;20199;-82
2022/07/25 13:00:12;;;;;;;2.80;1.85;;;15.20;99.90;;;;;;5071590;28;20474;-82
2022/07/25 13:02:46;;;;;;;1.95;1.70;;;15.20;99.90;;;;;;5082464;28;20184;-82
2022/07/25 13:05:16;;;;;;;2.83;1.75;;;15.20;99.90;;;;;;5094807;28;20306;-87
2022/07/25 13:07:47;;;;;;;2.42;1.70;;;15.20;99.90;;;;;;5079901;28;20184;-94
2022/07/25 13:10:19;;;;;;;4.20;1.90;;;15.20;99.90;;;;;;5062118;28;20229;-82
2022/07/25 13:12:50;;;;;;;3.75;1.90;;;15.20;99.90;;;;;;5075942;28;20196;-83